createdAt,value
2023-04-02T00:00:27.399Z,8.00
2023-04-02T00:01:37.858Z,8.00
2023-04-02T00:02:55.323Z,8.00
2023-04-02T00:04:00.243Z,8.00
2023-04-02T00:05:18.253Z,7.90
2023-04-02T00:06:34.931Z,7.90
2023-04-02T00:07:40.369Z,7.90
2023-04-02T00:08:42.136Z,7.90
2023-04-02T00:09:44.039Z,7.80
2023-04-02T00:10:50.454Z,7.80
2023-04-02T00:11:54.844Z,7.80
2023-04-02T00:13:10.476Z,7.80
2023-04-02T00:14:25.005Z,7.70
2023-04-02T00:15:27.263Z,7.70
2023-04-02T00:16:29.597Z,7.70
2023-04-02T00:17:31.347Z,7.60
2023-04-02T00:18:36.955Z,7.60
2023-04-02T00:19:51.564Z,7.50
2023-04-02T00:21:21.300Z,7.50
2023-04-02T00:22:31.566Z,7.50
2023-04-02T00:23:38.172Z,7.40
2023-04-02T00:24:40.430Z,7.40
2023-04-02T00:25:45.547Z,7.40
2023-04-02T00:26:52.235Z,7.40
2023-04-02T00:27:55.133Z,7.40
2023-04-02T00:28:57.868Z,7.40
2023-04-02T00:29:59.940Z,7.40
2023-04-02T00:31:01.868Z,7.40
2023-04-02T00:32:04.469Z,7.30
2023-04-02T00:33:10.995Z,7.30
2023-04-02T00:34:25.873Z,7.30
2023-04-02T00:35:29.366Z,7.30
2023-04-02T00:36:34.236Z,7.30
2023-04-02T00:37:41.996Z,7.30
2023-04-02T00:38:46.730Z,7.20
2023-04-02T00:39:55.685Z,7.20
2023-04-02T00:41:01.895Z,7.20
2023-04-02T00:42:06.838Z,7.20
2023-04-02T00:43:08.663Z,7.20
2023-04-02T00:44:14.404Z,7.10
2023-04-02T00:45:24.525Z,7.10
2023-04-02T00:46:32.278Z,7.10
2023-04-02T00:47:37.577Z,7.10
2023-04-02T00:48:52.635Z,7.10
2023-04-02T00:50:03.466Z,7.10
2023-04-02T00:51:35.349Z,7.00
2023-04-02T00:52:38.466Z,7.00
2023-04-02T00:53:41.962Z,7.00
2023-04-02T00:54:47.795Z,6.90
2023-04-02T00:55:50.170Z,6.90
2023-04-02T00:56:57.136Z,6.90
2023-04-02T00:58:00.591Z,6.90
2023-04-02T00:59:02.983Z,6.90
2023-04-02T01:00:22.920Z,6.90
2023-04-02T01:01:36.374Z,6.80
2023-04-02T01:02:40.753Z,6.80
2023-04-02T01:03:45.009Z,6.70
2023-04-02T01:04:54.678Z,6.70
2023-04-02T01:06:03.659Z,6.70
2023-04-02T01:07:09.611Z,6.60
2023-04-02T01:08:31.708Z,6.60
2023-04-02T01:09:36.399Z,6.50
2023-04-02T01:10:50.218Z,6.50
2023-04-02T01:12:02.250Z,6.50
2023-04-02T01:13:16.429Z,6.50
2023-04-02T01:14:55.676Z,6.50
2023-04-02T01:16:42.253Z,6.50
2023-04-02T01:17:58.487Z,6.50
2023-04-02T01:19:37.543Z,6.50
2023-04-02T01:21:01.863Z,6.40
2023-04-02T01:22:20.590Z,6.40
2023-04-02T01:23:47.035Z,6.40
2023-04-02T01:24:49.339Z,6.40
2023-04-02T01:26:13.554Z,6.50
2023-04-02T01:27:37.122Z,6.50
2023-04-02T01:28:52.309Z,6.40
2023-04-02T01:29:56.828Z,6.40
2023-04-02T01:31:01.487Z,6.40
2023-04-02T01:32:07.619Z,6.30
2023-04-02T01:33:09.440Z,6.20
2023-04-02T01:34:16.426Z,6.20
2023-04-02T01:35:18.350Z,6.20
2023-04-02T01:36:41.396Z,6.10
2023-04-02T01:37:46.792Z,6.10
2023-04-02T01:39:03.082Z,6.10
2023-04-02T01:40:31.002Z,6.10
2023-04-02T01:42:05.410Z,6.10
2023-04-02T01:43:19.054Z,6.00
2023-04-02T01:44:31.687Z,6.00
2023-04-02T01:45:35.229Z,6.00
2023-04-02T01:46:41.351Z,5.90
2023-04-02T01:47:44.165Z,5.90
2023-04-02T01:48:46.699Z,5.90
2023-04-02T01:49:48.761Z,5.90
2023-04-02T01:50:55.031Z,5.90
2023-04-02T01:51:57.180Z,5.90
2023-04-02T01:53:04.481Z,5.80
2023-04-02T01:54:07.693Z,5.80
2023-04-02T01:55:13.100Z,5.80
2023-04-02T01:56:14.934Z,5.80
2023-04-02T01:57:16.830Z,5.80
2023-04-02T01:58:24.033Z,5.80
2023-04-02T01:59:26.521Z,5.70
2023-04-02T02:00:30.378Z,5.80
2023-04-02T02:01:51.856Z,5.70
2023-04-02T02:02:53.863Z,5.70
2023-04-02T02:03:55.948Z,5.70
2023-04-02T02:04:58.792Z,5.70
2023-04-02T02:06:02.363Z,5.70
2023-04-02T02:07:04.902Z,5.70
2023-04-02T02:08:20.587Z,5.70
2023-04-02T02:09:26.921Z,5.70
2023-04-02T02:10:39.754Z,5.70
2023-04-02T02:11:41.806Z,5.70
2023-04-02T02:12:45.852Z,5.70
2023-04-02T02:13:57.264Z,5.60
2023-04-02T02:14:58.998Z,5.60
2023-04-02T02:16:03.151Z,5.60
2023-04-02T02:17:17.376Z,5.60
2023-04-02T02:18:24.570Z,5.50
2023-04-02T02:19:47.683Z,5.50
2023-04-02T02:20:51.314Z,5.50
2023-04-02T02:22:04.364Z,5.50
2023-04-02T02:23:07.126Z,5.50
2023-04-02T02:24:27.595Z,5.50
2023-04-02T02:25:33.006Z,5.50
2023-04-02T02:26:36.345Z,5.50
2023-04-02T02:27:55.646Z,5.50
2023-04-02T02:28:58.908Z,5.50
2023-04-02T02:30:06.186Z,5.40
2023-04-02T02:31:19.647Z,5.50
2023-04-02T02:32:25.545Z,5.40
2023-04-02T02:33:32.041Z,5.40
2023-04-02T02:34:41.576Z,5.40
2023-04-02T02:35:47.009Z,5.40
2023-04-02T02:36:59.471Z,5.40
2023-04-02T02:38:42.269Z,5.40
2023-04-02T02:39:47.828Z,5.30
2023-04-02T02:40:53.008Z,5.40
2023-04-02T02:41:57.775Z,5.40
2023-04-02T02:43:04.359Z,5.40
2023-04-02T02:44:08.734Z,5.40
2023-04-02T02:45:17.973Z,5.40
2023-04-02T02:46:22.180Z,5.30
2023-04-02T02:47:28.428Z,5.40
2023-04-02T02:48:37.209Z,5.40
2023-04-02T02:49:43.440Z,5.40
2023-04-02T02:50:46.464Z,5.40
2023-04-02T02:51:59.983Z,5.30
2023-04-02T02:53:05.703Z,5.40
2023-04-02T02:54:07.882Z,5.40
2023-04-02T02:55:23.158Z,5.30
2023-04-02T02:56:26.670Z,5.30
2023-04-02T02:57:33.298Z,5.30
2023-04-02T02:58:35.218Z,5.30
2023-04-02T02:59:38.340Z,5.30
2023-04-02T03:00:40.975Z,5.30
2023-04-02T03:01:44.156Z,5.20
2023-04-02T03:02:47.500Z,5.20
2023-04-02T03:03:52.943Z,5.20
2023-04-02T03:04:56.383Z,5.20
2023-04-02T03:06:09.169Z,5.20
2023-04-02T03:07:11.311Z,5.20
2023-04-02T03:08:20.685Z,5.20
2023-04-02T03:09:31.414Z,5.20
2023-04-02T03:10:44.264Z,5.20
2023-04-02T03:12:04.250Z,5.20
2023-04-02T03:13:35.659Z,5.20
2023-04-02T03:14:42.605Z,5.20
2023-04-02T03:16:06.024Z,5.20
2023-04-02T03:17:51.380Z,5.10
2023-04-02T03:19:07.801Z,5.00
2023-04-02T03:20:57.919Z,5.00
2023-04-02T03:22:14.608Z,4.90
2023-04-02T03:23:28.563Z,4.90
2023-04-02T03:24:42.243Z,4.80
2023-04-02T03:25:50.555Z,4.90
2023-04-02T03:27:02.396Z,4.90
2023-04-02T03:28:14.327Z,4.80
2023-04-02T03:29:25.462Z,4.80
2023-04-02T03:30:36.901Z,4.80
2023-04-02T03:31:44.256Z,4.80
2023-04-02T03:32:49.365Z,4.80
2023-04-02T03:34:00.777Z,4.80
2023-04-02T03:35:11.731Z,4.80
2023-04-02T03:36:18.702Z,4.80
2023-04-02T03:37:29.928Z,4.80
2023-04-02T03:38:36.856Z,4.80
2023-04-02T03:39:51.273Z,4.80
2023-04-02T03:41:01.990Z,4.80
2023-04-02T03:42:27.267Z,4.80
2023-04-02T03:43:44.146Z,4.80
2023-04-02T03:44:53.266Z,4.80
2023-04-02T03:46:16.719Z,4.80
2023-04-02T03:47:33.623Z,4.80
2023-04-02T03:48:43.681Z,4.80
2023-04-02T03:49:53.847Z,4.80
2023-04-02T03:51:02.814Z,4.80
2023-04-02T03:52:11.882Z,4.80
2023-04-02T03:53:13.957Z,4.70
2023-04-02T03:54:16.885Z,4.80
2023-04-02T03:55:29.282Z,4.70
2023-04-02T03:56:39.789Z,4.70
2023-04-02T03:57:53.513Z,4.70
2023-04-02T03:59:33.015Z,4.70
2023-04-02T04:01:04.206Z,4.70
2023-04-02T04:02:24.685Z,4.70
2023-04-02T04:03:57.475Z,4.70
2023-04-02T04:05:00.286Z,4.60
2023-04-02T04:06:32.769Z,4.60
2023-04-02T04:07:41.884Z,4.60
2023-04-02T04:08:59.258Z,4.70
2023-04-02T04:10:02.682Z,4.70
2023-04-02T04:11:13.346Z,4.60
2023-04-02T04:12:21.696Z,4.60
2023-04-02T04:13:41.499Z,4.60
2023-04-02T04:14:48.991Z,4.60
2023-04-02T04:16:47.435Z,4.50
2023-04-02T04:18:02.354Z,4.50
2023-04-02T04:19:15.235Z,4.50
2023-04-02T04:20:45.933Z,4.50
2023-04-02T04:21:47.960Z,4.50
2023-04-02T04:22:55.622Z,4.40
2023-04-02T04:24:15.845Z,4.40
2023-04-02T04:25:30.028Z,4.30
2023-04-02T04:26:43.665Z,4.30
2023-04-02T04:28:07.747Z,4.30
2023-04-02T04:29:34.086Z,4.30
2023-04-02T04:31:00.109Z,4.30
2023-04-02T04:32:32.439Z,4.30
2023-04-02T04:33:45.084Z,4.30
2023-04-02T04:34:53.734Z,4.30
2023-04-02T04:35:59.338Z,4.20
2023-04-02T04:37:07.889Z,4.30
2023-04-02T04:38:32.957Z,4.20
2023-04-02T04:39:47.477Z,4.20
2023-04-02T04:40:54.164Z,4.20
2023-04-02T04:41:59.470Z,4.10
2023-04-02T04:43:05.806Z,4.10
2023-04-02T04:44:22.992Z,4.10
2023-04-02T04:45:37.882Z,4.10
2023-04-02T04:46:45.990Z,4.10
2023-04-02T04:47:56.750Z,4.10
2023-04-02T04:49:04.669Z,4.00
2023-04-02T04:50:15.488Z,4.00
2023-04-02T04:51:29.518Z,4.00
2023-04-02T04:52:38.250Z,4.00
2023-04-02T04:53:52.691Z,3.90
2023-04-02T04:54:54.456Z,4.00
2023-04-02T04:56:16.064Z,3.90
2023-04-02T04:57:29.742Z,3.90
2023-04-02T04:58:46.204Z,3.90
2023-04-02T04:59:59.078Z,3.90
2023-04-02T05:01:24.580Z,3.90
2023-04-02T05:02:32.258Z,3.90
2023-04-02T05:03:48.245Z,3.90
2023-04-02T05:04:52.349Z,3.90
2023-04-02T05:05:58.817Z,3.90
2023-04-02T05:07:42.212Z,3.80
2023-04-02T05:08:49.114Z,3.80
2023-04-02T05:10:14.901Z,3.80
2023-04-02T05:11:28.264Z,3.80
2023-04-02T05:12:29.966Z,3.80
2023-04-02T05:13:41.814Z,3.80
2023-04-02T05:15:00.605Z,3.80
2023-04-02T05:16:28.600Z,3.80
2023-04-02T05:17:45.460Z,3.80
2023-04-02T05:19:12.312Z,3.70
2023-04-02T05:21:12.695Z,3.70
2023-04-02T05:22:38.893Z,3.70
2023-04-02T05:24:02.534Z,3.70
2023-04-02T05:25:21.033Z,3.70
2023-04-02T05:26:29.317Z,3.60
2023-04-02T05:27:36.790Z,3.60
2023-04-02T05:28:59.614Z,3.60
2023-04-02T05:30:09.725Z,3.60
2023-04-02T05:31:34.793Z,3.60
2023-04-02T05:32:43.334Z,3.60
2023-04-02T05:33:47.442Z,3.60
2023-04-02T05:34:54.823Z,3.60
2023-04-02T05:36:09.405Z,3.60
2023-04-02T05:37:19.166Z,3.60
2023-04-02T05:38:23.779Z,3.60
2023-04-02T05:39:27.478Z,3.70
2023-04-02T05:40:41.436Z,3.70
2023-04-02T05:41:47.562Z,3.70
2023-04-02T05:42:52.938Z,3.70
2023-04-02T05:44:21.359Z,3.70
2023-04-02T05:45:31.830Z,3.70
2023-04-02T05:46:57.105Z,3.70
2023-04-02T05:48:03.750Z,3.60
2023-04-02T05:49:14.186Z,3.50
2023-04-02T05:50:27.900Z,3.50
2023-04-02T05:51:42.297Z,3.50
2023-04-02T05:52:51.827Z,3.40
2023-04-02T05:53:57.220Z,3.40
2023-04-02T05:55:12.333Z,3.30
2023-04-02T05:56:25.088Z,3.30
2023-04-02T05:57:44.497Z,3.20
2023-04-02T05:58:56.274Z,3.20
2023-04-02T06:00:03.944Z,3.10
2023-04-02T06:01:24.165Z,3.10
2023-04-02T06:02:41.453Z,3.10
2023-04-02T06:03:59.570Z,3.10
2023-04-02T06:05:04.508Z,3.10
2023-04-02T06:06:15.546Z,3.10
2023-04-02T06:07:32.810Z,3.10
2023-04-02T06:08:41.620Z,3.00
2023-04-02T06:10:00.790Z,3.10
2023-04-02T06:11:10.540Z,3.00
2023-04-02T06:12:24.628Z,3.10
2023-04-02T06:13:27.490Z,3.00
2023-04-02T06:14:29.306Z,3.00
2023-04-02T06:15:33.261Z,3.10
2023-04-02T06:16:37.958Z,3.00
2023-04-02T06:17:48.696Z,3.10
2023-04-02T06:18:50.707Z,3.00
2023-04-02T06:19:54.574Z,3.10
2023-04-02T06:20:56.631Z,3.10
2023-04-02T06:22:08.918Z,3.10
2023-04-02T06:23:40.864Z,3.10
2023-04-02T06:24:45.693Z,3.10
2023-04-02T06:26:12.968Z,3.10
2023-04-02T06:27:20.102Z,3.10
2023-04-02T06:28:33.182Z,3.10
2023-04-02T06:29:39.967Z,3.10
2023-04-02T06:30:43.145Z,3.10
2023-04-02T06:31:48.880Z,3.10
2023-04-02T06:32:51.324Z,3.10
2023-04-02T06:33:55.021Z,3.10
2023-04-02T06:34:57.191Z,3.10
2023-04-02T06:36:01.474Z,3.10
2023-04-02T06:37:21.781Z,3.10
2023-04-02T06:38:30.783Z,3.10
2023-04-02T06:39:32.555Z,3.10
2023-04-02T06:40:40.286Z,3.10
2023-04-02T06:41:42.077Z,3.10
2023-04-02T06:42:46.090Z,3.20
2023-04-02T06:43:53.351Z,3.20
2023-04-02T06:44:55.512Z,3.20
2023-04-02T06:46:00.733Z,3.20
2023-04-02T06:47:21.456Z,3.20
2023-04-02T06:48:25.362Z,3.20
2023-04-02T06:49:47.803Z,3.20
2023-04-02T06:50:57.785Z,3.20
2023-04-02T06:52:01.952Z,3.20
2023-04-02T06:53:09.593Z,3.20
2023-04-02T06:54:16.309Z,3.20
2023-04-02T06:55:20.857Z,3.20
2023-04-02T06:56:42.390Z,3.20
2023-04-02T06:57:44.239Z,3.20
2023-04-02T06:58:46.448Z,3.20
2023-04-02T06:59:48.352Z,3.20
2023-04-02T07:00:51.167Z,3.20
2023-04-02T07:02:03.701Z,3.20
2023-04-02T07:03:15.973Z,3.20
2023-04-02T07:04:19.779Z,3.10
2023-04-02T07:05:21.779Z,3.10
2023-04-02T07:06:23.716Z,3.20
2023-04-02T07:07:25.450Z,3.10
2023-04-02T07:08:27.213Z,3.10
2023-04-02T07:09:29.352Z,3.10
2023-04-02T07:10:31.131Z,3.10
2023-04-02T07:11:32.875Z,3.10
2023-04-02T07:12:34.607Z,3.00
2023-04-02T07:13:36.309Z,3.00
2023-04-02T07:14:38.095Z,3.00
2023-04-02T07:15:39.899Z,3.00
2023-04-02T07:16:43.296Z,3.10
2023-04-02T07:17:46.282Z,3.10
2023-04-02T07:18:48.651Z,3.10
2023-04-02T07:19:50.452Z,3.10
2023-04-02T07:20:56.084Z,3.10
2023-04-02T07:21:57.848Z,3.10
2023-04-02T07:22:59.599Z,3.20
2023-04-02T07:24:01.340Z,3.20
2023-04-02T07:25:03.087Z,3.10
2023-04-02T07:26:05.981Z,3.10
2023-04-02T07:27:09.534Z,3.10
2023-04-02T07:28:13.958Z,3.20
2023-04-02T07:29:16.948Z,3.10
2023-04-02T07:30:19.380Z,3.10
2023-04-02T07:31:27.035Z,3.10
2023-04-02T07:32:28.965Z,3.10
2023-04-02T07:33:31.403Z,3.10
2023-04-02T07:34:33.154Z,3.10
2023-04-02T07:35:35.192Z,3.10
2023-04-02T07:36:37.099Z,3.10
2023-04-02T07:37:39.046Z,3.10
2023-04-02T07:38:40.918Z,3.00
2023-04-02T07:39:42.657Z,3.00
2023-04-02T07:40:44.440Z,3.00
2023-04-02T07:42:00.837Z,3.00
2023-04-02T07:43:03.383Z,3.00
2023-04-02T07:44:05.144Z,3.00
2023-04-02T07:45:07.587Z,3.00
2023-04-02T07:46:10.806Z,3.10
2023-04-02T07:47:12.577Z,3.10
2023-04-02T07:48:14.898Z,3.10
2023-04-02T07:49:16.776Z,3.10
2023-04-02T07:50:18.896Z,3.10
2023-04-02T07:51:24.512Z,3.10
2023-04-02T07:52:26.350Z,3.10
2023-04-02T07:53:33.755Z,3.10
2023-04-02T07:54:35.959Z,3.10
2023-04-02T07:55:37.900Z,3.10
2023-04-02T07:56:40.020Z,3.10
2023-04-02T07:57:53.278Z,3.10
2023-04-02T07:58:55.143Z,3.10
2023-04-02T07:59:57.134Z,3.10
2023-04-02T08:01:01.520Z,3.10
2023-04-02T08:02:04.362Z,3.20
2023-04-02T08:03:06.156Z,3.20
2023-04-02T08:04:18.080Z,3.20
2023-04-02T08:05:20.388Z,3.20
2023-04-02T08:06:23.453Z,3.20
2023-04-02T08:07:27.046Z,3.20
2023-04-02T08:08:28.832Z,3.20
2023-04-02T08:09:30.574Z,3.20
2023-04-02T08:10:32.274Z,3.20
2023-04-02T08:11:34.013Z,3.20
2023-04-02T08:12:36.040Z,3.30
2023-04-02T08:13:38.089Z,3.30
2023-04-02T08:14:40.148Z,3.30
2023-04-02T08:15:42.941Z,3.30
2023-04-02T08:16:48.966Z,3.30
2023-04-02T08:17:51.455Z,3.40
2023-04-02T08:18:53.376Z,3.40
2023-04-02T08:19:56.065Z,3.40
2023-04-02T08:20:58.549Z,3.50
2023-04-02T08:22:00.394Z,3.50
2023-04-02T08:23:03.263Z,3.50
2023-04-02T08:24:05.227Z,3.50
2023-04-02T08:25:07.318Z,3.50
2023-04-02T08:26:09.201Z,3.50
2023-04-02T08:27:14.460Z,3.50
2023-04-02T08:28:16.651Z,3.50
2023-04-02T08:29:18.427Z,3.50
2023-04-02T08:30:20.301Z,3.50
2023-04-02T08:31:22.092Z,3.50
2023-04-02T08:32:24.185Z,3.50
2023-04-02T08:33:26.253Z,3.50
2023-04-02T08:34:28.590Z,3.50
2023-04-02T08:35:30.456Z,3.50
2023-04-02T08:36:38.898Z,3.50
2023-04-02T08:37:41.829Z,3.50
2023-04-02T08:38:43.656Z,3.50
2023-04-02T08:39:45.495Z,3.40
2023-04-02T08:40:53.832Z,3.40
2023-04-02T08:41:56.021Z,3.40
2023-04-02T08:43:28.780Z,3.40
2023-04-02T08:45:21.203Z,3.40
2023-04-02T08:46:48.290Z,3.40
2023-04-02T08:47:53.514Z,3.30
2023-04-02T08:49:00.651Z,3.40
2023-04-02T08:50:16.091Z,3.40
2023-04-02T08:51:34.341Z,3.40
2023-04-02T08:52:38.568Z,3.40
2023-04-02T08:53:41.909Z,3.40
2023-04-02T08:54:43.782Z,3.40
2023-04-02T08:56:17.678Z,3.40
2023-04-02T08:57:38.466Z,3.40
2023-04-02T08:59:03.299Z,3.40
2023-04-02T09:00:39.127Z,3.40
2023-04-02T09:01:56.805Z,3.40
2023-04-02T09:03:28.327Z,3.40
2023-04-02T09:04:31.492Z,3.40
2023-04-02T09:05:37.419Z,3.40
2023-04-02T09:06:39.407Z,3.40
2023-04-02T09:07:42.092Z,3.40
2023-04-02T09:08:46.403Z,3.50
2023-04-02T09:09:49.949Z,3.40
2023-04-02T09:11:06.986Z,3.50
2023-04-02T09:12:26.165Z,3.40
2023-04-02T09:13:30.513Z,3.50
2023-04-02T09:15:09.870Z,3.40
2023-04-02T09:16:17.233Z,3.50
2023-04-02T09:17:24.482Z,3.50
2023-04-02T09:18:30.069Z,3.50
2023-04-02T09:19:40.839Z,3.50
2023-04-02T09:20:43.334Z,3.50
2023-04-02T09:22:00.218Z,3.50
2023-04-02T09:23:02.065Z,3.40
2023-04-02T09:24:05.286Z,3.40
2023-04-02T09:25:14.890Z,3.40
2023-04-02T09:26:29.253Z,3.40
2023-04-02T09:27:34.113Z,3.40
2023-04-02T09:28:36.359Z,3.30
2023-04-02T09:29:46.395Z,3.30
2023-04-02T09:31:20.746Z,3.30
2023-04-02T09:32:48.444Z,3.30
2023-04-02T09:33:53.129Z,3.30
2023-04-02T09:35:26.618Z,3.30
2023-04-02T09:36:35.078Z,3.30
2023-04-02T09:37:37.362Z,3.30
2023-04-02T09:38:39.112Z,3.30
2023-04-02T09:39:41.114Z,3.30
2023-04-02T09:40:48.611Z,3.30
2023-04-02T09:42:02.759Z,3.30
2023-04-02T09:43:17.060Z,3.30
2023-04-02T09:44:24.756Z,3.30
2023-04-02T09:45:26.895Z,3.30
2023-04-02T09:46:28.684Z,3.30
2023-04-02T09:47:32.256Z,3.30
2023-04-02T09:48:41.406Z,3.30
2023-04-02T09:49:43.195Z,3.30
2023-04-02T09:50:44.908Z,3.30
2023-04-02T09:52:05.482Z,3.40
2023-04-02T09:53:46.123Z,3.40
2023-04-02T09:55:26.301Z,3.40
2023-04-02T09:56:28.674Z,3.40
2023-04-02T09:57:33.109Z,3.30
2023-04-02T09:58:34.887Z,3.40
2023-04-02T09:59:37.493Z,3.30
2023-04-02T10:00:42.078Z,3.30
2023-04-02T10:01:54.050Z,3.40
2023-04-02T10:03:05.296Z,3.40
2023-04-02T10:04:32.831Z,3.30
2023-04-02T10:06:50.218Z,3.40
2023-04-02T10:07:53.903Z,3.40
2023-04-02T10:08:56.264Z,3.40
2023-04-02T10:10:16.684Z,3.40
2023-04-02T10:11:36.532Z,3.50
2023-04-02T10:12:44.277Z,3.50
2023-04-02T10:13:58.828Z,3.50
2023-04-02T10:15:03.294Z,3.50
2023-04-02T10:16:14.460Z,3.50
2023-04-02T10:17:21.972Z,3.50
2023-04-02T10:18:23.805Z,3.50
2023-04-02T10:19:52.311Z,3.50
2023-04-02T10:20:56.240Z,3.50
2023-04-02T10:22:02.845Z,3.50
2023-04-02T10:23:06.380Z,3.60
2023-04-02T10:24:14.071Z,3.60
2023-04-02T10:25:17.846Z,3.60
2023-04-02T10:26:34.980Z,3.60
2023-04-02T10:28:32.022Z,3.50
2023-04-02T10:30:06.943Z,3.60
2023-04-02T10:31:13.032Z,3.60
2023-04-02T10:32:36.083Z,3.60
2023-04-02T10:33:38.520Z,3.60
2023-04-02T10:35:02.297Z,3.60
2023-04-02T10:36:19.457Z,3.60
2023-04-02T10:37:46.992Z,3.60
2023-04-02T10:38:59.503Z,3.60
2023-04-02T10:40:10.419Z,3.60
2023-04-02T10:41:31.467Z,3.60
2023-04-02T10:42:43.575Z,3.60
2023-04-02T10:44:13.147Z,3.60
2023-04-02T10:45:37.898Z,3.60
2023-04-02T10:47:04.902Z,3.70
2023-04-02T10:48:17.616Z,3.70
2023-04-02T10:49:31.730Z,3.70
2023-04-02T10:50:49.572Z,3.70
2023-04-02T10:51:59.922Z,3.70
2023-04-02T10:53:25.294Z,3.70
2023-04-02T10:54:33.896Z,3.80
2023-04-02T10:55:43.133Z,3.80
2023-04-02T10:56:51.189Z,3.70
2023-04-02T10:57:57.473Z,3.70
2023-04-02T10:59:22.730Z,3.70
2023-04-02T11:00:33.182Z,3.70
2023-04-02T11:01:36.330Z,3.70
2023-04-02T11:03:07.977Z,3.80
2023-04-02T11:04:26.804Z,3.80
2023-04-02T11:05:37.365Z,3.80
2023-04-02T11:06:47.487Z,3.80
2023-04-02T11:08:06.816Z,3.70
2023-04-02T11:09:18.052Z,3.80
2023-04-02T11:10:21.279Z,3.80
2023-04-02T11:11:27.790Z,3.80
2023-04-02T11:12:52.327Z,3.80
2023-04-02T11:14:01.314Z,3.90
2023-04-02T11:15:04.037Z,3.90
2023-04-02T11:16:06.359Z,3.90
2023-04-02T11:17:14.077Z,3.90
2023-04-02T11:19:06.119Z,3.90
2023-04-02T11:20:44.696Z,3.80
2023-04-02T11:21:58.574Z,3.90
2023-04-02T11:23:18.229Z,3.90
2023-04-02T11:24:37.427Z,3.90
2023-04-02T11:25:41.922Z,4.00
2023-04-02T11:26:47.985Z,4.00
2023-04-02T11:27:50.168Z,4.00
2023-04-02T11:29:06.847Z,4.00
2023-04-02T11:30:38.606Z,4.00
2023-04-02T11:31:41.715Z,4.00
2023-04-02T11:32:47.629Z,4.00
2023-04-02T11:33:50.153Z,4.00
2023-04-02T11:35:05.192Z,4.00
2023-04-02T11:36:46.526Z,4.00
2023-04-02T11:37:48.790Z,4.00
2023-04-02T11:38:52.816Z,4.00
2023-04-02T11:39:59.620Z,4.00
2023-04-02T11:41:01.397Z,4.00
2023-04-02T11:42:25.490Z,4.00
2023-04-02T11:43:33.168Z,4.00
2023-04-02T11:44:35.103Z,4.10
2023-04-02T11:45:52.656Z,4.10
2023-04-02T11:47:16.296Z,4.20
2023-04-02T11:48:18.158Z,4.20
2023-04-02T11:49:36.652Z,4.30
2023-04-02T11:50:43.400Z,4.20
2023-04-02T11:51:45.572Z,4.20
2023-04-02T11:52:47.617Z,4.20
2023-04-02T11:53:54.328Z,4.20
2023-04-02T11:55:16.442Z,4.30
2023-04-02T11:56:33.286Z,4.20
2023-04-02T11:57:50.929Z,4.20
2023-04-02T11:59:18.707Z,4.20
2023-04-02T12:00:57.645Z,4.30
2023-04-02T12:02:28.345Z,4.30
2023-04-02T12:03:55.463Z,4.40
2023-04-02T12:05:04.330Z,4.40
2023-04-02T12:06:25.606Z,4.40
2023-04-02T12:07:52.103Z,4.40
2023-04-02T12:09:15.797Z,4.50
2023-04-02T12:10:23.587Z,4.50
2023-04-02T12:11:40.304Z,4.50
2023-04-02T12:12:43.113Z,4.50
2023-04-02T12:13:49.140Z,4.60
2023-04-02T12:14:56.313Z,4.60
2023-04-02T12:15:58.616Z,4.60
2023-04-02T12:17:00.609Z,4.60
2023-04-02T12:18:24.024Z,4.70
2023-04-02T12:19:27.187Z,4.60
2023-04-02T12:20:30.621Z,4.60
2023-04-02T12:21:32.443Z,4.60
2023-04-02T12:22:39.495Z,4.60
2023-04-02T12:23:44.707Z,4.70
2023-04-02T12:24:48.363Z,4.70
2023-04-02T12:26:03.752Z,4.80
2023-04-02T12:27:22.529Z,4.80
2023-04-02T12:28:25.171Z,4.80
2023-04-02T12:29:28.961Z,4.80
2023-04-02T12:30:30.885Z,4.80
2023-04-02T12:31:33.638Z,4.80
2023-04-02T12:32:35.822Z,4.80
2023-04-02T12:33:39.377Z,4.80
2023-04-02T12:34:46.101Z,4.80
2023-04-02T12:35:54.753Z,4.80
2023-04-02T12:37:04.870Z,4.90
2023-04-02T12:38:19.171Z,4.90
2023-04-02T12:39:21.538Z,4.90
2023-04-02T12:40:24.742Z,5.00
2023-04-02T12:41:36.501Z,5.00
2023-04-02T12:42:38.273Z,5.00
2023-04-02T12:43:40.124Z,5.00
2023-04-02T12:44:49.329Z,5.10
2023-04-02T12:45:57.274Z,5.10
2023-04-02T12:46:59.470Z,5.10
2023-04-02T12:48:05.313Z,5.10
2023-04-02T12:49:29.725Z,5.20
2023-04-02T12:50:33.325Z,5.10
2023-04-02T12:51:36.596Z,5.20
2023-04-02T12:52:46.346Z,5.20
2023-04-02T12:53:52.647Z,5.20
2023-04-02T12:54:58.451Z,5.30
2023-04-02T12:56:00.850Z,5.30
2023-04-02T12:57:27.610Z,5.30
2023-04-02T12:58:38.617Z,5.30
2023-04-02T12:59:41.696Z,5.30
2023-04-02T13:00:43.577Z,5.30
2023-04-02T13:02:03.765Z,5.30
2023-04-02T13:03:27.293Z,5.30
2023-04-02T13:04:31.347Z,5.20
2023-04-02T13:05:42.716Z,5.20
2023-04-02T13:06:52.045Z,5.20
2023-04-02T13:07:53.916Z,5.10
2023-04-02T13:08:56.029Z,5.10
2023-04-02T13:10:00.627Z,5.10
2023-04-02T13:11:04.415Z,5.10
2023-04-02T13:12:07.131Z,5.00
2023-04-02T13:13:16.477Z,5.00
2023-04-02T13:14:21.207Z,5.00
2023-04-02T13:15:28.321Z,5.00
2023-04-02T13:16:39.821Z,5.00
2023-04-02T13:17:50.798Z,5.00
2023-04-02T13:19:08.467Z,5.00
2023-04-02T13:20:33.839Z,5.00
2023-04-02T13:21:35.704Z,5.00
2023-04-02T13:22:37.453Z,5.00
2023-04-02T13:23:39.253Z,5.00
2023-04-02T13:24:42.091Z,5.10
2023-04-02T13:25:43.909Z,5.10
2023-04-02T13:26:47.924Z,5.20
2023-04-02T13:27:49.707Z,5.20
2023-04-02T13:29:04.047Z,5.20
2023-04-02T13:30:11.023Z,5.30
2023-04-02T13:31:19.494Z,5.30
2023-04-02T13:32:22.177Z,5.30
2023-04-02T13:33:24.050Z,5.30
2023-04-02T13:34:26.425Z,5.20
2023-04-02T13:35:28.188Z,5.20
2023-04-02T13:36:30.662Z,5.20
2023-04-02T13:37:32.464Z,5.20
2023-04-02T13:38:34.232Z,5.20
2023-04-02T13:39:36.095Z,5.20
2023-04-02T13:40:38.669Z,5.20
2023-04-02T13:41:44.166Z,5.10
2023-04-02T13:42:47.440Z,5.10
2023-04-02T13:43:50.836Z,5.10
2023-04-02T13:44:52.585Z,5.10
2023-04-02T13:45:55.737Z,5.00
2023-04-02T13:46:58.725Z,5.00
2023-04-02T13:48:03.682Z,5.10
2023-04-02T13:49:05.753Z,5.10
2023-04-02T13:50:09.091Z,5.10
2023-04-02T13:51:18.617Z,5.10
2023-04-02T13:52:20.441Z,5.10
2023-04-02T13:53:29.340Z,5.10
2023-04-02T13:54:37.246Z,5.10
2023-04-02T13:55:42.144Z,5.10
2023-04-02T13:56:43.935Z,5.10
2023-04-02T13:57:46.122Z,5.10
2023-04-02T13:58:47.837Z,5.00
2023-04-02T13:59:49.554Z,5.00
2023-04-02T14:00:51.728Z,5.00
2023-04-02T14:01:59.391Z,5.00
2023-04-02T14:03:07.462Z,5.00
2023-04-02T14:04:10.726Z,5.00
2023-04-02T14:05:17.359Z,5.00
2023-04-02T14:06:43.883Z,5.00
2023-04-02T14:08:10.686Z,5.00
2023-04-02T14:09:39.606Z,5.00
2023-04-02T14:11:11.326Z,5.00
2023-04-02T14:12:13.006Z,4.90
2023-04-02T14:13:50.376Z,4.90
2023-04-02T14:15:46.181Z,4.90
2023-04-02T14:16:58.888Z,4.90
2023-04-02T14:18:45.451Z,4.90
2023-04-02T14:20:28.887Z,4.90
2023-04-02T14:22:03.019Z,4.90
2023-04-02T14:23:20.335Z,4.90
2023-04-02T14:24:33.928Z,4.90
2023-04-02T14:25:41.492Z,4.90
2023-04-02T14:26:46.345Z,4.90
2023-04-02T14:27:53.168Z,4.90
2023-04-02T14:29:23.753Z,4.90
2023-04-02T14:30:57.922Z,4.90
2023-04-02T14:32:13.684Z,4.90
2023-04-02T14:33:52.976Z,4.90
2023-04-02T14:34:57.981Z,4.90
2023-04-02T14:36:46.083Z,5.00
2023-04-02T14:37:57.901Z,5.00
2023-04-02T14:39:32.703Z,4.90
2023-04-02T14:40:52.869Z,4.90
2023-04-02T14:42:16.552Z,4.90
2023-04-02T14:43:52.245Z,4.90
2023-04-02T14:45:20.010Z,4.90
2023-04-02T14:46:26.845Z,4.80
2023-04-02T14:47:43.332Z,4.80
2023-04-02T14:48:54.418Z,4.80
2023-04-02T14:50:02.887Z,4.80
2023-04-02T14:51:34.329Z,4.80
2023-04-02T14:52:37.568Z,4.70
2023-04-02T14:53:54.469Z,4.70
2023-04-02T14:55:02.410Z,4.70
2023-04-02T14:56:08.135Z,4.70
2023-04-02T14:57:12.583Z,4.70
2023-04-02T14:58:21.167Z,4.70
2023-04-02T14:59:32.639Z,4.70
2023-04-02T15:00:51.615Z,4.70
2023-04-02T15:02:16.575Z,4.70
2023-04-02T15:03:31.401Z,4.70
2023-04-02T15:04:44.140Z,4.70
2023-04-02T15:05:55.435Z,4.80
2023-04-02T15:07:04.933Z,4.70
2023-04-02T15:08:27.192Z,4.70
2023-04-02T15:09:35.643Z,4.80
2023-04-02T15:10:56.494Z,4.80
2023-04-02T15:12:09.306Z,4.80
2023-04-02T15:13:21.364Z,4.80
2023-04-02T15:14:33.826Z,4.80
2023-04-02T15:15:47.480Z,4.80
2023-04-02T15:16:49.293Z,4.80
2023-04-02T15:17:51.273Z,4.80
2023-04-02T15:18:56.362Z,4.80
2023-04-02T15:20:14.889Z,4.80
2023-04-02T15:21:19.407Z,4.80
2023-04-02T15:22:29.409Z,4.80
2023-04-02T15:24:04.494Z,4.80
2023-04-02T15:25:12.502Z,4.70
2023-04-02T15:26:20.023Z,4.70
2023-04-02T15:27:59.300Z,4.70
2023-04-02T15:29:25.888Z,4.80
2023-04-02T15:30:43.580Z,4.80
2023-04-02T15:31:46.869Z,4.70
2023-04-02T15:32:49.633Z,4.80
2023-04-02T15:34:18.764Z,4.80
2023-04-02T15:35:38.162Z,4.80
2023-04-02T15:37:02.263Z,4.90
2023-04-02T15:38:29.815Z,4.80
2023-04-02T15:39:48.688Z,4.80
2023-04-02T15:41:07.612Z,4.80
2023-04-02T15:42:12.100Z,4.90
2023-04-02T15:43:28.894Z,4.80
2023-04-02T15:44:30.871Z,4.80
2023-04-02T15:45:37.347Z,4.80